sensor_id;sensor_type;location;lat;lon;timestamp;P1;durP1;ratioP1;P2;durP2;ratioP2
2872;SDS011;1444;49.166;7.312;2023-02-14T00:01:23;31.07;;;15.83;;
2872;SDS011;1444;49.166;7.312;2023-02-14T00:03:51;29.60;;;13.80;;
2872;SDS011;1444;49.166;7.312;2023-02-14T00:06:18;33.17;;;16.90;;
2872;SDS011;1444;49.166;7.312;2023-02-14T00:08:45;25.20;;;13.60;;
2872;SDS011;1444;49.166;7.312;2023-02-14T00:11:12;36.27;;;17.00;;
2872;SDS011;1444;49.166;7.312;2023-02-14T00:13:39;34.60;;;16.77;;
2872;SDS011;1444;49.166;7.312;2023-02-14T00:16:25;39.27;;;17.60;;
2872;SDS011;1444;49.166;7.312;2023-02-14T00:18:53;26.67;;;13.13;;
2872;SDS011;1444;49.166;7.312;2023-02-14T00:21:28;29.07;;;14.93;;
2872;SDS011;1444;49.166;7.312;2023-02-14T00:23:55;33.23;;;15.33;;
2872;SDS011;1444;49.166;7.312;2023-02-14T00:26:22;49.60;;;17.60;;
2872;SDS011;1444;49.166;7.312;2023-02-14T00:28:48;34.80;;;16.40;;
2872;SDS011;1444;49.166;7.312;2023-02-14T00:31:15;38.33;;;18.13;;
2872;SDS011;1444;49.166;7.312;2023-02-14T00:33:42;24.43;;;13.17;;
2872;SDS011;1444;49.166;7.312;2023-02-14T00:36:10;39.83;;;18.67;;
2872;SDS011;1444;49.166;7.312;2023-02-14T00:38:37;38.27;;;15.70;;
2872;SDS011;1444;49.166;7.312;2023-02-14T00:41:04;31.13;;;13.97;;
2872;SDS011;1444;49.166;7.312;2023-02-14T00:43:30;37.83;;;16.73;;
2872;SDS011;1444;49.166;7.312;2023-02-14T00:45:57;32.20;;;15.23;;
2872;SDS011;1444;49.166;7.312;2023-02-14T00:48:24;27.87;;;14.20;;
2872;SDS011;1444;49.166;7.312;2023-02-14T00:50:51;25.30;;;13.50;;
2872;SDS011;1444;49.166;7.312;2023-02-14T00:53:19;41.53;;;18.60;;
2872;SDS011;1444;49.166;7.312;2023-02-14T00:55:45;25.33;;;12.70;;
2872;SDS011;1444;49.166;7.312;2023-02-14T00:58:12;40.10;;;17.53;;
2872;SDS011;1444;49.166;7.312;2023-02-14T01:00:39;28.70;;;14.97;;
2872;SDS011;1444;49.166;7.312;2023-02-14T01:03:05;28.47;;;14.33;;
2872;SDS011;1444;49.166;7.312;2023-02-14T01:05:32;31.33;;;13.97;;
2872;SDS011;1444;49.166;7.312;2023-02-14T01:07:59;31.40;;;15.43;;
2872;SDS011;1444;49.166;7.312;2023-02-14T01:10:27;32.53;;;13.17;;
2872;SDS011;1444;49.166;7.312;2023-02-14T01:12:53;25.90;;;14.40;;
2872;SDS011;1444;49.166;7.312;2023-02-14T01:15:20;34.17;;;15.13;;
2872;SDS011;1444;49.166;7.312;2023-02-14T01:17:47;20.50;;;11.90;;
2872;SDS011;1444;49.166;7.312;2023-02-14T01:20:14;45.97;;;18.20;;
2872;SDS011;1444;49.166;7.312;2023-02-14T01:22:41;26.10;;;13.80;;
2872;SDS011;1444;49.166;7.312;2023-02-14T01:25:07;48.97;;;16.90;;
2872;SDS011;1444;49.166;7.312;2023-02-14T01:27:35;29.90;;;14.80;;
2872;SDS011;1444;49.166;7.312;2023-02-14T01:30:03;32.33;;;15.73;;
2872;SDS011;1444;49.166;7.312;2023-02-14T01:32:30;26.23;;;13.37;;
2872;SDS011;1444;49.166;7.312;2023-02-14T01:34:57;28.57;;;14.37;;
2872;SDS011;1444;49.166;7.312;2023-02-14T01:37:24;31.67;;;15.77;;
2872;SDS011;1444;49.166;7.312;2023-02-14T01:39:50;27.33;;;13.40;;
2872;SDS011;1444;49.166;7.312;2023-02-14T01:42:18;35.13;;;17.50;;
2872;SDS011;1444;49.166;7.312;2023-02-14T01:44:59;24.13;;;13.33;;
2872;SDS011;1444;49.166;7.312;2023-02-14T01:47:27;36.50;;;15.37;;
2872;SDS011;1444;49.166;7.312;2023-02-14T01:49:58;29.60;;;14.10;;
2872;SDS011;1444;49.166;7.312;2023-02-14T01:52:28;25.47;;;12.30;;
2872;SDS011;1444;49.166;7.312;2023-02-14T01:54:58;39.73;;;17.50;;
2872;SDS011;1444;49.166;7.312;2023-02-14T01:57:29;31.00;;;14.03;;
2872;SDS011;1444;49.166;7.312;2023-02-14T02:00:04;32.33;;;14.13;;
2872;SDS011;1444;49.166;7.312;2023-02-14T02:02:50;22.33;;;11.73;;
2872;SDS011;1444;49.166;7.312;2023-02-14T02:05:18;39.47;;;17.23;;
2872;SDS011;1444;49.166;7.312;2023-02-14T02:07:48;26.70;;;12.50;;
2872;SDS011;1444;49.166;7.312;2023-02-14T02:10:16;35.87;;;17.47;;
2872;SDS011;1444;49.166;7.312;2023-02-14T02:12:42;29.23;;;14.47;;
2872;SDS011;1444;49.166;7.312;2023-02-14T02:15:11;33.57;;;16.57;;
2872;SDS011;1444;49.166;7.312;2023-02-14T02:17:40;40.07;;;12.87;;
2872;SDS011;1444;49.166;7.312;2023-02-14T02:23:27;38.43;;;16.93;;
2872;SDS011;1444;49.166;7.312;2023-02-14T02:26:24;38.13;;;15.33;;
2872;SDS011;1444;49.166;7.312;2023-02-14T02:29:09;31.77;;;15.73;;
2872;SDS011;1444;49.166;7.312;2023-02-14T02:32:08;31.90;;;14.50;;
2872;SDS011;1444;49.166;7.312;2023-02-14T02:35:05;22.53;;;12.50;;
2872;SDS011;1444;49.166;7.312;2023-02-14T02:37:45;30.20;;;13.93;;
2872;SDS011;1444;49.166;7.312;2023-02-14T02:40:28;36.23;;;16.07;;
2872;SDS011;1444;49.166;7.312;2023-02-14T02:43:06;32.93;;;16.53;;
2872;SDS011;1444;49.166;7.312;2023-02-14T02:45:46;27.83;;;12.60;;
2872;SDS011;1444;49.166;7.312;2023-02-14T02:48:34;26.17;;;13.90;;
2872;SDS011;1444;49.166;7.312;2023-02-14T02:51:09;33.77;;;14.23;;
2872;SDS011;1444;49.166;7.312;2023-02-14T02:54:02;27.43;;;14.10;;
2872;SDS011;1444;49.166;7.312;2023-02-14T02:56:35;41.83;;;16.80;;
2872;SDS011;1444;49.166;7.312;2023-02-14T02:59:10;45.67;;;18.80;;
2872;SDS011;1444;49.166;7.312;2023-02-14T03:01:44;53.90;;;15.90;;
2872;SDS011;1444;49.166;7.312;2023-02-14T03:04:14;51.70;;;20.60;;
2872;SDS011;1444;49.166;7.312;2023-02-14T03:07:01;27.37;;;14.43;;
2872;SDS011;1444;49.166;7.312;2023-02-14T03:09:50;30.57;;;14.80;;
2872;SDS011;1444;49.166;7.312;2023-02-14T03:12:30;37.20;;;15.20;;
2872;SDS011;1444;49.166;7.312;2023-02-14T03:15:16;35.70;;;16.00;;
2872;SDS011;1444;49.166;7.312;2023-02-14T03:17:49;24.60;;;12.40;;
2872;SDS011;1444;49.166;7.312;2023-02-14T03:20:22;37.63;;;17.00;;
2872;SDS011;1444;49.166;7.312;2023-02-14T03:22:55;30.73;;;14.17;;
2872;SDS011;1444;49.166;7.312;2023-02-14T03:25:30;31.00;;;15.13;;
2872;SDS011;1444;49.166;7.312;2023-02-14T03:28:08;49.80;;;17.77;;
2872;SDS011;1444;49.166;7.312;2023-02-14T03:30:43;27.27;;;13.90;;
2872;SDS011;1444;49.166;7.312;2023-02-14T03:33:15;30.77;;;14.80;;
2872;SDS011;1444;49.166;7.312;2023-02-14T03:35:47;37.37;;;16.07;;
2872;SDS011;1444;49.166;7.312;2023-02-14T03:38:23;34.47;;;14.27;;
2872;SDS011;1444;49.166;7.312;2023-02-14T03:40:53;27.37;;;13.40;;
2872;SDS011;1444;49.166;7.312;2023-02-14T03:43:23;43.53;;;16.90;;
2872;SDS011;1444;49.166;7.312;2023-02-14T03:45:53;23.63;;;11.50;;
2872;SDS011;1444;49.166;7.312;2023-02-14T03:48:25;27.00;;;13.40;;
2872;SDS011;1444;49.166;7.312;2023-02-14T03:50:55;29.70;;;14.00;;
2872;SDS011;1444;49.166;7.312;2023-02-14T03:53:26;37.50;;;14.83;;
2872;SDS011;1444;49.166;7.312;2023-02-14T03:55:57;26.73;;;12.20;;
2872;SDS011;1444;49.166;7.312;2023-02-14T03:58:29;39.73;;;12.50;;
2872;SDS011;1444;49.166;7.312;2023-02-14T04:01:00;33.47;;;15.20;;
2872;SDS011;1444;49.166;7.312;2023-02-14T04:03:31;26.03;;;14.03;;
2872;SDS011;1444;49.166;7.312;2023-02-14T04:05:59;25.20;;;12.70;;
2872;SDS011;1444;49.166;7.312;2023-02-14T04:08:28;31.40;;;14.77;;
2872;SDS011;1444;49.166;7.312;2023-02-14T04:10:55;36.33;;;14.60;;
2872;SDS011;1444;49.166;7.312;2023-02-14T04:13:25;27.00;;;12.40;;
2872;SDS011;1444;49.166;7.312;2023-02-14T04:15:52;20.37;;;12.77;;
2872;SDS011;1444;49.166;7.312;2023-02-14T04:18:19;46.20;;;18.30;;
2872;SDS011;1444;49.166;7.312;2023-02-14T04:21:03;33.30;;;14.47;;
2872;SDS011;1444;49.166;7.312;2023-02-14T04:23:31;31.80;;;15.17;;
2872;SDS011;1444;49.166;7.312;2023-02-14T04:25:58;33.43;;;14.90;;
2872;SDS011;1444;49.166;7.312;2023-02-14T04:28:25;26.50;;;13.20;;
2872;SDS011;1444;49.166;7.312;2023-02-14T04:30:51;26.87;;;12.67;;
2872;SDS011;1444;49.166;7.312;2023-02-14T04:33:18;44.23;;;18.00;;
2872;SDS011;1444;49.166;7.312;2023-02-14T04:35:46;33.40;;;14.20;;
2872;SDS011;1444;49.166;7.312;2023-02-14T04:38:13;43.60;;;17.10;;
2872;SDS011;1444;49.166;7.312;2023-02-14T04:40:41;26.33;;;12.63;;
2872;SDS011;1444;49.166;7.312;2023-02-14T04:43:08;49.00;;;18.60;;
2872;SDS011;1444;49.166;7.312;2023-02-14T04:45:35;24.50;;;12.00;;
2872;SDS011;1444;49.166;7.312;2023-02-14T04:48:02;28.57;;;13.50;;
2872;SDS011;1444;49.166;7.312;2023-02-14T04:50:28;27.83;;;12.90;;
2872;SDS011;1444;49.166;7.312;2023-02-14T04:52:55;26.60;;;14.47;;
2872;SDS011;1444;49.166;7.312;2023-02-14T04:55:22;44.53;;;17.23;;
2872;SDS011;1444;49.166;7.312;2023-02-14T04:57:50;20.20;;;10.50;;
2872;SDS011;1444;49.166;7.312;2023-02-14T05:00:17;40.63;;;15.93;;
2872;SDS011;1444;49.166;7.312;2023-02-14T05:02:44;28.10;;;14.13;;
2872;SDS011;1444;49.166;7.312;2023-02-14T05:05:11;53.70;;;19.03;;
2872;SDS011;1444;49.166;7.312;2023-02-14T05:07:38;26.93;;;12.87;;
2872;SDS011;1444;49.166;7.312;2023-02-14T05:10:06;25.27;;;12.80;;
2872;SDS011;1444;49.166;7.312;2023-02-14T05:12:33;28.77;;;13.07;;
2872;SDS011;1444;49.166;7.312;2023-02-14T05:15:01;28.93;;;13.77;;
2872;SDS011;1444;49.166;7.312;2023-02-14T05:17:28;23.50;;;12.40;;
2872;SDS011;1444;49.166;7.312;2023-02-14T05:19:55;28.87;;;13.40;;
2872;SDS011;1444;49.166;7.312;2023-02-14T05:22:21;36.40;;;14.63;;
2872;SDS011;1444;49.166;7.312;2023-02-14T05:24:48;27.20;;;12.63;;
2872;SDS011;1444;49.166;7.312;2023-02-14T05:27:15;46.17;;;17.93;;
2872;SDS011;1444;49.166;7.312;2023-02-14T05:29:42;26.60;;;12.53;;
2872;SDS011;1444;49.166;7.312;2023-02-14T05:32:10;43.50;;;18.43;;
2872;SDS011;1444;49.166;7.312;2023-02-14T05:34:37;31.07;;;13.10;;
2872;SDS011;1444;49.166;7.312;2023-02-14T05:37:03;33.57;;;14.13;;
2872;SDS011;1444;49.166;7.312;2023-02-14T05:39:30;28.50;;;14.03;;
2872;SDS011;1444;49.166;7.312;2023-02-14T05:41:57;29.23;;;14.20;;
2872;SDS011;1444;49.166;7.312;2023-02-14T05:44:23;33.70;;;14.07;;
2872;SDS011;1444;49.166;7.312;2023-02-14T05:46:50;26.10;;;13.00;;
2872;SDS011;1444;49.166;7.312;2023-02-14T05:49:20;42.23;;;17.53;;
2872;SDS011;1444;49.166;7.312;2023-02-14T05:51:47;27.70;;;13.80;;
2872;SDS011;1444;49.166;7.312;2023-02-14T05:54:13;42.43;;;19.17;;
2872;SDS011;1444;49.166;7.312;2023-02-14T05:56:40;31.13;;;14.23;;
2872;SDS011;1444;49.166;7.312;2023-02-14T05:59:06;59.37;;;16.60;;
2872;SDS011;1444;49.166;7.312;2023-02-14T06:01:33;27.83;;;12.90;;
2872;SDS011;1444;49.166;7.312;2023-02-14T06:04:00;36.07;;;14.40;;
2872;SDS011;1444;49.166;7.312;2023-02-14T06:06:28;34.40;;;14.90;;
2872;SDS011;1444;49.166;7.312;2023-02-14T06:08:55;31.07;;;13.63;;
2872;SDS011;1444;49.166;7.312;2023-02-14T06:11:21;31.03;;;15.30;;
2872;SDS011;1444;49.166;7.312;2023-02-14T06:13:48;22.83;;;12.57;;
2872;SDS011;1444;49.166;7.312;2023-02-14T06:16:15;30.80;;;16.87;;
2872;SDS011;1444;49.166;7.312;2023-02-14T06:18:42;23.07;;;12.97;;
2872;SDS011;1444;49.166;7.312;2023-02-14T06:21:09;33.47;;;13.80;;
2872;SDS011;1444;49.166;7.312;2023-02-14T06:23:37;31.73;;;13.50;;
2872;SDS011;1444;49.166;7.312;2023-02-14T06:26:04;23.23;;;13.10;;
2872;SDS011;1444;49.166;7.312;2023-02-14T06:28:30;23.20;;;13.10;;
2872;SDS011;1444;49.166;7.312;2023-02-14T06:30:57;27.13;;;13.23;;
2872;SDS011;1444;49.166;7.312;2023-02-14T06:33:23;45.17;;;14.80;;
2872;SDS011;1444;49.166;7.312;2023-02-14T06:35:51;23.57;;;12.93;;
2872;SDS011;1444;49.166;7.312;2023-02-14T06:38:18;31.63;;;17.50;;
2872;SDS011;1444;49.166;7.312;2023-02-14T06:40:46;17.53;;;11.87;;
2872;SDS011;1444;49.166;7.312;2023-02-14T06:43:13;50.53;;;19.20;;
2872;SDS011;1444;49.166;7.312;2023-02-14T06:45:40;28.77;;;13.30;;
2872;SDS011;1444;49.166;7.312;2023-02-14T06:48:08;37.63;;;18.77;;
2872;SDS011;1444;49.166;7.312;2023-02-14T06:50:34;31.20;;;14.33;;
2872;SDS011;1444;49.166;7.312;2023-02-14T06:53:01;38.70;;;18.47;;
2872;SDS011;1444;49.166;7.312;2023-02-14T06:55:28;28.27;;;14.83;;
2872;SDS011;1444;49.166;7.312;2023-02-14T06:57:56;30.03;;;12.90;;
2872;SDS011;1444;49.166;7.312;2023-02-14T07:00:22;28.67;;;14.73;;
2872;SDS011;1444;49.166;7.312;2023-02-14T07:02:49;26.67;;;13.20;;
2872;SDS011;1444;49.166;7.312;2023-02-14T07:05:16;41.63;;;18.20;;
2872;SDS011;1444;49.166;7.312;2023-02-14T07:07:43;24.00;;;12.83;;
2872;SDS011;1444;49.166;7.312;2023-02-14T07:10:10;36.13;;;16.33;;
2872;SDS011;1444;49.166;7.312;2023-02-14T07:12:37;28.47;;;12.57;;
2872;SDS011;1444;49.166;7.312;2023-02-14T07:15:06;33.23;;;15.80;;
2872;SDS011;1444;49.166;7.312;2023-02-14T07:17:34;27.83;;;13.40;;
2872;SDS011;1444;49.166;7.312;2023-02-14T07:20:01;41.73;;;13.40;;
2872;SDS011;1444;49.166;7.312;2023-02-14T07:22:28;22.17;;;13.37;;
2872;SDS011;1444;49.166;7.312;2023-02-14T07:24:54;21.57;;;12.63;;
2872;SDS011;1444;49.166;7.312;2023-02-14T07:27:21;31.83;;;16.07;;
2872;SDS011;1444;49.166;7.312;2023-02-14T07:29:48;20.67;;;10.90;;
2872;SDS011;1444;49.166;7.312;2023-02-14T07:32:16;31.67;;;17.43;;
2872;SDS011;1444;49.166;7.312;2023-02-14T07:34:43;43.37;;;14.30;;
2872;SDS011;1444;49.166;7.312;2023-02-14T07:37:09;33.57;;;17.37;;
2872;SDS011;1444;49.166;7.312;2023-02-14T07:39:36;30.90;;;19.40;;
2872;SDS011;1444;49.166;7.312;2023-02-14T07:42:03;39.67;;;22.03;;
2872;SDS011;1444;49.166;7.312;2023-02-14T07:44:30;42.67;;;24.43;;
2872;SDS011;1444;49.166;7.312;2023-02-14T07:46:57;37.17;;;21.67;;
2872;SDS011;1444;49.166;7.312;2023-02-14T07:49:25;34.37;;;21.00;;
2872;SDS011;1444;49.166;7.312;2023-02-14T07:51:51;28.10;;;16.83;;
2872;SDS011;1444;49.166;7.312;2023-02-14T07:54:18;31.20;;;19.60;;
2872;SDS011;1444;49.166;7.312;2023-02-14T07:56:45;32.20;;;16.43;;
2872;SDS011;1444;49.166;7.312;2023-02-14T07:59:11;35.97;;;18.97;;
2872;SDS011;1444;49.166;7.312;2023-02-14T08:01:38;26.87;;;15.97;;
2872;SDS011;1444;49.166;7.312;2023-02-14T08:04:04;36.33;;;16.17;;
2872;SDS011;1444;49.166;7.312;2023-02-14T08:06:32;33.57;;;19.93;;
2872;SDS011;1444;49.166;7.312;2023-02-14T08:08:59;25.57;;;16.10;;
2872;SDS011;1444;49.166;7.312;2023-02-14T08:11:26;34.20;;;18.77;;
2872;SDS011;1444;49.166;7.312;2023-02-14T08:14:10;44.43;;;25.40;;
2872;SDS011;1444;49.166;7.312;2023-02-14T08:16:37;36.43;;;20.03;;
2872;SDS011;1444;49.166;7.312;2023-02-14T08:19:04;32.43;;;20.43;;
2872;SDS011;1444;49.166;7.312;2023-02-14T08:21:32;33.23;;;19.47;;
2872;SDS011;1444;49.166;7.312;2023-02-14T08:23:59;38.83;;;22.90;;
2872;SDS011;1444;49.166;7.312;2023-02-14T08:26:25;49.13;;;23.53;;
2872;SDS011;1444;49.166;7.312;2023-02-14T08:28:53;32.77;;;17.90;;
2872;SDS011;1444;49.166;7.312;2023-02-14T08:31:21;46.03;;;20.87;;
2872;SDS011;1444;49.166;7.312;2023-02-14T08:33:49;29.40;;;15.27;;
2872;SDS011;1444;49.166;7.312;2023-02-14T08:36:15;42.90;;;20.13;;
2872;SDS011;1444;49.166;7.312;2023-02-14T08:38:43;34.50;;;17.43;;
2872;SDS011;1444;49.166;7.312;2023-02-14T08:41:11;54.90;;;24.90;;
2872;SDS011;1444;49.166;7.312;2023-02-14T08:43:38;44.77;;;19.03;;
2872;SDS011;1444;49.166;7.312;2023-02-14T08:46:05;41.00;;;18.00;;
2872;SDS011;1444;49.166;7.312;2023-02-14T08:48:32;44.13;;;19.20;;
2872;SDS011;1444;49.166;7.312;2023-02-14T08:51:03;37.07;;;16.60;;
2872;SDS011;1444;49.166;7.312;2023-02-14T08:53:30;32.10;;;16.87;;
2872;SDS011;1444;49.166;7.312;2023-02-14T08:56:01;40.93;;;19.13;;
2872;SDS011;1444;49.166;7.312;2023-02-14T08:58:28;44.80;;;19.77;;
2872;SDS011;1444;49.166;7.312;2023-02-14T09:00:55;34.70;;;14.30;;
2872;SDS011;1444;49.166;7.312;2023-02-14T09:03:22;46.87;;;21.10;;
2872;SDS011;1444;49.166;7.312;2023-02-14T09:05:49;30.37;;;16.57;;
2872;SDS011;1444;49.166;7.312;2023-02-14T09:08:15;42.63;;;22.50;;
2872;SDS011;1444;49.166;7.312;2023-02-14T09:10:42;49.67;;;19.77;;
2872;SDS011;1444;49.166;7.312;2023-02-14T09:13:10;46.20;;;23.50;;
2872;SDS011;1444;49.166;7.312;2023-02-14T09:15:37;41.63;;;17.97;;
2872;SDS011;1444;49.166;7.312;2023-02-14T09:18:04;34.57;;;17.77;;
2872;SDS011;1444;49.166;7.312;2023-02-14T09:20:31;43.70;;;20.33;;
2872;SDS011;1444;49.166;7.312;2023-02-14T09:22:57;40.07;;;18.17;;
2872;SDS011;1444;49.166;7.312;2023-02-14T09:25:24;46.73;;;24.03;;
2872;SDS011;1444;49.166;7.312;2023-02-14T09:27:50;34.17;;;16.47;;
2872;SDS011;1444;49.166;7.312;2023-02-14T09:30:19;65.27;;;27.87;;
2872;SDS011;1444;49.166;7.312;2023-02-14T09:32:45;44.37;;;20.40;;
2872;SDS011;1444;49.166;7.312;2023-02-14T09:35:12;49.97;;;25.00;;
2872;SDS011;1444;49.166;7.312;2023-02-14T09:37:56;39.87;;;19.97;;
2872;SDS011;1444;49.166;7.312;2023-02-14T09:40:41;33.40;;;17.07;;
2872;SDS011;1444;49.166;7.312;2023-02-14T09:43:08;45.10;;;21.27;;
2872;SDS011;1444;49.166;7.312;2023-02-14T09:45:43;40.33;;;18.43;;
2872;SDS011;1444;49.166;7.312;2023-02-14T09:48:18;52.30;;;23.13;;
2872;SDS011;1444;49.166;7.312;2023-02-14T09:50:52;46.77;;;21.83;;
2872;SDS011;1444;49.166;7.312;2023-02-14T09:53:23;57.33;;;24.23;;
2872;SDS011;1444;49.166;7.312;2023-02-14T09:55:52;50.13;;;24.07;;
2872;SDS011;1444;49.166;7.312;2023-02-14T09:58:28;50.10;;;20.50;;
2872;SDS011;1444;49.166;7.312;2023-02-14T10:01:00;48.37;;;23.40;;
2872;SDS011;1444;49.166;7.312;2023-02-14T10:12:13;46.07;;;22.17;;
2872;SDS011;1444;49.166;7.312;2023-02-14T10:14:48;32.83;;;17.00;;
2872;SDS011;1444;49.166;7.312;2023-02-14T10:17:20;48.43;;;22.30;;
2872;SDS011;1444;49.166;7.312;2023-02-14T10:20:02;43.33;;;21.83;;
2872;SDS011;1444;49.166;7.312;2023-02-14T10:22:33;45.90;;;21.93;;
2872;SDS011;1444;49.166;7.312;2023-02-14T10:25:05;50.83;;;23.07;;
2872;SDS011;1444;49.166;7.312;2023-02-14T10:27:39;44.53;;;23.50;;
2872;SDS011;1444;49.166;7.312;2023-02-14T10:30:11;54.83;;;25.33;;
2872;SDS011;1444;49.166;7.312;2023-02-14T10:32:41;52.70;;;23.67;;
2872;SDS011;1444;49.166;7.312;2023-02-14T10:35:14;51.17;;;24.67;;
2872;SDS011;1444;49.166;7.312;2023-02-14T10:37:50;39.57;;;21.70;;
2872;SDS011;1444;49.166;7.312;2023-02-14T10:40:31;36.60;;;21.07;;
2872;SDS011;1444;49.166;7.312;2023-02-14T10:43:08;55.80;;;25.87;;
2872;SDS011;1444;49.166;7.312;2023-02-14T10:45:44;51.50;;;23.67;;
2872;SDS011;1444;49.166;7.312;2023-02-14T10:48:21;60.47;;;28.10;;
2872;SDS011;1444;49.166;7.312;2023-02-14T10:50:57;54.50;;;25.33;;
2872;SDS011;1444;49.166;7.312;2023-02-14T10:53:32;38.67;;;22.30;;
2872;SDS011;1444;49.166;7.312;2023-02-14T10:56:07;41.47;;;22.77;;
2872;SDS011;1444;49.166;7.312;2023-02-14T10:58:42;49.73;;;24.07;;
2872;SDS011;1444;49.166;7.312;2023-02-14T11:01:11;44.80;;;25.97;;
2872;SDS011;1444;49.166;7.312;2023-02-14T11:03:42;40.30;;;22.87;;
2872;SDS011;1444;49.166;7.312;2023-02-14T11:06:17;49.47;;;25.20;;
2872;SDS011;1444;49.166;7.312;2023-02-14T11:08:44;36.70;;;20.23;;
2872;SDS011;1444;49.166;7.312;2023-02-14T11:11:12;47.70;;;23.07;;
2872;SDS011;1444;49.166;7.312;2023-02-14T11:13:44;36.83;;;21.87;;
2872;SDS011;1444;49.166;7.312;2023-02-14T11:16:11;45.27;;;24.70;;
2872;SDS011;1444;49.166;7.312;2023-02-14T11:18:46;41.40;;;23.43;;
2872;SDS011;1444;49.166;7.312;2023-02-14T11:21:13;83.10;;;28.87;;
2872;SDS011;1444;49.166;7.312;2023-02-14T11:23:42;51.47;;;21.27;;
2872;SDS011;1444;49.166;7.312;2023-02-14T11:26:13;59.90;;;30.50;;
2872;SDS011;1444;49.166;7.312;2023-02-14T11:28:47;43.63;;;23.73;;
2872;SDS011;1444;49.166;7.312;2023-02-14T11:31:24;46.67;;;26.47;;
2872;SDS011;1444;49.166;7.312;2023-02-14T11:33:55;59.00;;;25.20;;
2872;SDS011;1444;49.166;7.312;2023-02-14T11:36:22;62.37;;;27.10;;
2872;SDS011;1444;49.166;7.312;2023-02-14T11:38:53;52.13;;;24.77;;
2872;SDS011;1444;49.166;7.312;2023-02-14T11:41:23;56.57;;;28.33;;
2872;SDS011;1444;49.166;7.312;2023-02-14T11:43:49;45.27;;;23.43;;
2872;SDS011;1444;49.166;7.312;2023-02-14T11:49:36;52.47;;;25.17;;
2872;SDS011;1444;49.166;7.312;2023-02-14T11:52:07;50.70;;;25.23;;
2872;SDS011;1444;49.166;7.312;2023-02-14T11:54:35;48.80;;;26.63;;
2872;SDS011;1444;49.166;7.312;2023-02-14T11:57:05;56.93;;;26.40;;
2872;SDS011;1444;49.166;7.312;2023-02-14T11:59:35;44.43;;;26.50;;
2872;SDS011;1444;49.166;7.312;2023-02-14T12:02:12;47.60;;;26.20;;
2872;SDS011;1444;49.166;7.312;2023-02-14T12:04:50;41.13;;;21.37;;
2872;SDS011;1444;49.166;7.312;2023-02-14T12:07:19;49.43;;;26.63;;
2872;SDS011;1444;49.166;7.312;2023-02-14T12:09:48;53.80;;;22.97;;
2872;SDS011;1444;49.166;7.312;2023-02-14T12:12:32;48.97;;;24.53;;
2872;SDS011;1444;49.166;7.312;2023-02-14T12:15:11;48.40;;;24.70;;
2872;SDS011;1444;49.166;7.312;2023-02-14T12:17:48;45.53;;;24.27;;
2872;SDS011;1444;49.166;7.312;2023-02-14T12:20:21;50.60;;;24.20;;
2872;SDS011;1444;49.166;7.312;2023-02-14T12:22:59;42.10;;;22.17;;
2872;SDS011;1444;49.166;7.312;2023-02-14T12:25:32;45.00;;;24.57;;
2872;SDS011;1444;49.166;7.312;2023-02-14T12:28:08;50.27;;;25.67;;
2872;SDS011;1444;49.166;7.312;2023-02-14T12:30:41;43.60;;;24.87;;
2872;SDS011;1444;49.166;7.312;2023-02-14T12:33:10;49.47;;;25.00;;
2872;SDS011;1444;49.166;7.312;2023-02-14T12:35:46;42.63;;;23.07;;
2872;SDS011;1444;49.166;7.312;2023-02-14T12:38:20;55.23;;;26.23;;
2872;SDS011;1444;49.166;7.312;2023-02-14T12:40:59;42.67;;;22.43;;
2872;SDS011;1444;49.166;7.312;2023-02-14T12:43:43;39.37;;;23.40;;
2872;SDS011;1444;49.166;7.312;2023-02-14T12:46:19;49.47;;;25.40;;
2872;SDS011;1444;49.166;7.312;2023-02-14T12:48:58;55.20;;;25.17;;
2872;SDS011;1444;49.166;7.312;2023-02-14T12:51:41;53.40;;;26.03;;
2872;SDS011;1444;49.166;7.312;2023-02-14T12:54:16;47.00;;;27.57;;
2872;SDS011;1444;49.166;7.312;2023-02-14T12:56:58;41.17;;;23.87;;
2872;SDS011;1444;49.166;7.312;2023-02-14T12:59:35;37.03;;;23.50;;
2872;SDS011;1444;49.166;7.312;2023-02-14T13:02:15;52.33;;;23.90;;
2872;SDS011;1444;49.166;7.312;2023-02-14T13:05:05;40.97;;;24.53;;
2872;SDS011;1444;49.166;7.312;2023-02-14T13:07:46;46.13;;;22.40;;
2872;SDS011;1444;49.166;7.312;2023-02-14T13:10:25;46.20;;;23.73;;
2872;SDS011;1444;49.166;7.312;2023-02-14T13:12:58;45.90;;;21.50;;
2872;SDS011;1444;49.166;7.312;2023-02-14T13:15:30;40.70;;;23.13;;
2872;SDS011;1444;49.166;7.312;2023-02-14T13:18:07;44.07;;;22.20;;
2872;SDS011;1444;49.166;7.312;2023-02-14T13:20:41;39.90;;;22.97;;
2872;SDS011;1444;49.166;7.312;2023-02-14T13:23:16;41.10;;;23.97;;
2872;SDS011;1444;49.166;7.312;2023-02-14T13:25:48;37.47;;;21.40;;
2872;SDS011;1444;49.166;7.312;2023-02-14T13:28:17;33.17;;;21.10;;
2872;SDS011;1444;49.166;7.312;2023-02-14T13:30:45;36.53;;;21.37;;
2872;SDS011;1444;49.166;7.312;2023-02-14T13:33:23;41.23;;;25.27;;
2872;SDS011;1444;49.166;7.312;2023-02-14T13:35:53;38.13;;;20.60;;
2872;SDS011;1444;49.166;7.312;2023-02-14T13:38:24;33.03;;;20.67;;
2872;SDS011;1444;49.166;7.312;2023-02-14T13:40:51;37.83;;;20.30;;
2872;SDS011;1444;49.166;7.312;2023-02-14T13:46:21;34.10;;;23.17;;
2872;SDS011;1444;49.166;7.312;2023-02-14T13:49:13;38.13;;;23.60;;
2872;SDS011;1444;49.166;7.312;2023-02-14T13:51:52;41.60;;;20.70;;
2872;SDS011;1444;49.166;7.312;2023-02-14T13:57:26;30.00;;;20.73;;
2872;SDS011;1444;49.166;7.312;2023-02-14T14:02:57;27.80;;;19.53;;
2872;SDS011;1444;49.166;7.312;2023-02-14T14:11:03;30.97;;;20.37;;
2872;SDS011;1444;49.166;7.312;2023-02-14T14:13:53;33.60;;;22.10;;
2872;SDS011;1444;49.166;7.312;2023-02-14T14:16:26;35.03;;;21.17;;
2872;SDS011;1444;49.166;7.312;2023-02-14T14:18:55;35.20;;;21.30;;
2872;SDS011;1444;49.166;7.312;2023-02-14T14:21:23;36.83;;;21.10;;
2872;SDS011;1444;49.166;7.312;2023-02-14T14:26:49;31.43;;;19.57;;
2872;SDS011;1444;49.166;7.312;2023-02-14T14:29:24;32.93;;;20.13;;
2872;SDS011;1444;49.166;7.312;2023-02-14T14:31:53;32.37;;;19.80;;
2872;SDS011;1444;49.166;7.312;2023-02-14T14:34:21;33.30;;;20.90;;
2872;SDS011;1444;49.166;7.312;2023-02-14T14:36:49;47.00;;;20.13;;
2872;SDS011;1444;49.166;7.312;2023-02-14T14:39:26;26.47;;;17.63;;
2872;SDS011;1444;49.166;7.312;2023-02-14T14:41:56;27.20;;;17.50;;
2872;SDS011;1444;49.166;7.312;2023-02-14T14:44:31;28.20;;;18.67;;
2872;SDS011;1444;49.166;7.312;2023-02-14T14:46:58;28.70;;;19.30;;
2872;SDS011;1444;49.166;7.312;2023-02-14T14:49:26;27.57;;;19.00;;
2872;SDS011;1444;49.166;7.312;2023-02-14T14:51:54;27.90;;;19.50;;
2872;SDS011;1444;49.166;7.312;2023-02-14T14:54:21;33.63;;;18.40;;
2872;SDS011;1444;49.166;7.312;2023-02-14T14:56:52;21.13;;;13.30;;
2872;SDS011;1444;49.166;7.312;2023-02-14T14:59:27;25.87;;;19.77;;
2872;SDS011;1444;49.166;7.312;2023-02-14T15:01:55;31.13;;;19.73;;
2872;SDS011;1444;49.166;7.312;2023-02-14T15:04:24;26.43;;;19.40;;
2872;SDS011;1444;49.166;7.312;2023-02-14T15:06:53;30.00;;;19.70;;
2872;SDS011;1444;49.166;7.312;2023-02-14T15:09:21;28.50;;;19.93;;
2872;SDS011;1444;49.166;7.312;2023-02-14T15:11:54;27.60;;;19.17;;
2872;SDS011;1444;49.166;7.312;2023-02-14T15:14:42;41.47;;;20.13;;
2872;SDS011;1444;49.166;7.312;2023-02-14T15:17:16;35.30;;;19.30;;
2872;SDS011;1444;49.166;7.312;2023-02-14T15:19:45;46.77;;;19.70;;
2872;SDS011;1444;49.166;7.312;2023-02-14T15:22:17;36.07;;;20.00;;
2872;SDS011;1444;49.166;7.312;2023-02-14T15:24:45;35.70;;;21.30;;
2872;SDS011;1444;49.166;7.312;2023-02-14T15:27:12;36.20;;;20.73;;
2872;SDS011;1444;49.166;7.312;2023-02-14T15:29:51;30.30;;;20.00;;
2872;SDS011;1444;49.166;7.312;2023-02-14T15:32:19;34.53;;;21.10;;
2872;SDS011;1444;49.166;7.312;2023-02-14T15:34:46;33.73;;;21.97;;
2872;SDS011;1444;49.166;7.312;2023-02-14T15:37:13;32.10;;;21.70;;
2872;SDS011;1444;49.166;7.312;2023-02-14T15:39:42;31.70;;;21.50;;
2872;SDS011;1444;49.166;7.312;2023-02-14T15:42:18;37.00;;;20.40;;